sensor_id;sensor_type;location;lat;lon;timestamp;temperature;humidity
2935;DHT22;2462;51.456;7.248;2023-05-07T00:01:42;20.80;94.60
2935;DHT22;2462;51.456;7.248;2023-05-07T00:04:08;20.80;94.60
2935;DHT22;2462;51.456;7.248;2023-05-07T00:06:34;20.80;94.70
2935;DHT22;2462;51.456;7.248;2023-05-07T00:08:59;20.80;94.60
2935;DHT22;2462;51.456;7.248;2023-05-07T00:11:26;20.70;95.00
2935;DHT22;2462;51.456;7.248;2023-05-07T00:13:52;20.70;94.60
2935;DHT22;2462;51.456;7.248;2023-05-07T00:16:17;20.70;94.70
2935;DHT22;2462;51.456;7.248;2023-05-07T00:18:44;20.70;94.70
2935;DHT22;2462;51.456;7.248;2023-05-07T00:21:10;20.70;95.00
2935;DHT22;2462;51.456;7.248;2023-05-07T00:23:36;20.70;94.80
2935;DHT22;2462;51.456;7.248;2023-05-07T00:26:01;20.70;94.80
2935;DHT22;2462;51.456;7.248;2023-05-07T00:28:27;20.70;94.80
2935;DHT22;2462;51.456;7.248;2023-05-07T00:30:52;20.70;94.80
2935;DHT22;2462;51.456;7.248;2023-05-07T00:33:18;20.70;94.80
2935;DHT22;2462;51.456;7.248;2023-05-07T00:35:45;20.70;94.80
2935;DHT22;2462;51.456;7.248;2023-05-07T00:38:11;20.70;94.90
2935;DHT22;2462;51.456;7.248;2023-05-07T00:40:36;20.60;94.80
2935;DHT22;2462;51.456;7.248;2023-05-07T00:43:02;20.60;94.80
2935;DHT22;2462;51.456;7.248;2023-05-07T00:45:28;20.60;94.80
2935;DHT22;2462;51.456;7.248;2023-05-07T00:48:00;20.60;94.90
2935;DHT22;2462;51.456;7.248;2023-05-07T00:50:27;20.60;94.90
2935;DHT22;2462;51.456;7.248;2023-05-07T00:52:53;20.60;94.90
2935;DHT22;2462;51.456;7.248;2023-05-07T00:55:21;20.60;94.90
2935;DHT22;2462;51.456;7.248;2023-05-07T00:57:46;20.60;95.00
2935;DHT22;2462;51.456;7.248;2023-05-07T01:00:12;20.60;95.00
2935;DHT22;2462;51.456;7.248;2023-05-07T01:02:39;20.60;95.00
2935;DHT22;2462;51.456;7.248;2023-05-07T01:05:06;20.60;95.00
2935;DHT22;2462;51.456;7.248;2023-05-07T01:07:33;20.50;94.90
2935;DHT22;2462;51.456;7.248;2023-05-07T01:10:00;20.50;95.00
2935;DHT22;2462;51.456;7.248;2023-05-07T01:12:26;20.50;95.00
2935;DHT22;2462;51.456;7.248;2023-05-07T01:14:53;20.50;95.00
2935;DHT22;2462;51.456;7.248;2023-05-07T01:17:18;20.50;95.00
2935;DHT22;2462;51.456;7.248;2023-05-07T01:19:44;20.50;95.00
2935;DHT22;2462;51.456;7.248;2023-05-07T01:22:10;20.50;95.10
2935;DHT22;2462;51.456;7.248;2023-05-07T01:24:37;20.50;95.10
2935;DHT22;2462;51.456;7.248;2023-05-07T01:27:03;20.50;95.10
2935;DHT22;2462;51.456;7.248;2023-05-07T01:29:29;20.50;95.10
2935;DHT22;2462;51.456;7.248;2023-05-07T01:31:56;20.50;95.20
2935;DHT22;2462;51.456;7.248;2023-05-07T01:34:25;20.40;95.10
2935;DHT22;2462;51.456;7.248;2023-05-07T01:36:53;20.40;95.20
2935;DHT22;2462;51.456;7.248;2023-05-07T01:39:22;20.40;95.20
2935;DHT22;2462;51.456;7.248;2023-05-07T01:41:49;20.40;95.20
2935;DHT22;2462;51.456;7.248;2023-05-07T01:44:14;20.40;95.30
2935;DHT22;2462;51.456;7.248;2023-05-07T01:46:40;20.40;95.30
2935;DHT22;2462;51.456;7.248;2023-05-07T01:49:06;20.40;95.40
2935;DHT22;2462;51.456;7.248;2023-05-07T01:51:32;20.40;95.70
2935;DHT22;2462;51.456;7.248;2023-05-07T01:53:58;20.40;95.40
2935;DHT22;2462;51.456;7.248;2023-05-07T01:56:24;20.40;95.40
2935;DHT22;2462;51.456;7.248;2023-05-07T01:58:50;20.40;95.40
2935;DHT22;2462;51.456;7.248;2023-05-07T02:01:17;20.40;95.50
2935;DHT22;2462;51.456;7.248;2023-05-07T02:03:43;20.40;95.50
2935;DHT22;2462;51.456;7.248;2023-05-07T02:06:09;20.30;95.40
2935;DHT22;2462;51.456;7.248;2023-05-07T02:08:35;20.30;95.40
2935;DHT22;2462;51.456;7.248;2023-05-07T02:11:00;20.30;95.50
2935;DHT22;2462;51.456;7.248;2023-05-07T02:13:31;20.30;95.50
2935;DHT22;2462;51.456;7.248;2023-05-07T02:15:57;20.30;95.50
2935;DHT22;2462;51.456;7.248;2023-05-07T02:18:23;20.30;95.50
2935;DHT22;2462;51.456;7.248;2023-05-07T02:20:48;20.30;95.60
2935;DHT22;2462;51.456;7.248;2023-05-07T02:23:14;20.30;95.60
2935;DHT22;2462;51.456;7.248;2023-05-07T02:25:39;20.30;95.60
2935;DHT22;2462;51.456;7.248;2023-05-07T02:28:05;20.20;95.60
2935;DHT22;2462;51.456;7.248;2023-05-07T02:30:31;20.20;95.60
2935;DHT22;2462;51.456;7.248;2023-05-07T02:32:57;20.20;95.70
2935;DHT22;2462;51.456;7.248;2023-05-07T02:35:24;20.20;95.70
2935;DHT22;2462;51.456;7.248;2023-05-07T02:37:50;20.20;95.70
2935;DHT22;2462;51.456;7.248;2023-05-07T02:40:15;20.20;95.80
2935;DHT22;2462;51.456;7.248;2023-05-07T02:42:41;20.20;95.70
2935;DHT22;2462;51.456;7.248;2023-05-07T02:45:07;20.20;95.80
2935;DHT22;2462;51.456;7.248;2023-05-07T02:47:33;20.20;95.80
2935;DHT22;2462;51.456;7.248;2023-05-07T02:49:58;20.10;95.80
2935;DHT22;2462;51.456;7.248;2023-05-07T02:52:24;20.10;95.90
2935;DHT22;2462;51.456;7.248;2023-05-07T02:54:49;20.10;95.90
2935;DHT22;2462;51.456;7.248;2023-05-07T02:57:15;20.10;96.00
2935;DHT22;2462;51.456;7.248;2023-05-07T02:59:41;20.10;95.90
2935;DHT22;2462;51.456;7.248;2023-05-07T03:02:06;20.10;95.90
2935;DHT22;2462;51.456;7.248;2023-05-07T03:04:32;20.10;95.90
2935;DHT22;2462;51.456;7.248;2023-05-07T03:06:57;20.10;96.00
2935;DHT22;2462;51.456;7.248;2023-05-07T03:09:23;20.10;96.00
2935;DHT22;2462;51.456;7.248;2023-05-07T03:11:48;20.10;96.00
2935;DHT22;2462;51.456;7.248;2023-05-07T03:14:14;20.00;95.90
2935;DHT22;2462;51.456;7.248;2023-05-07T03:16:40;20.00;96.00
2935;DHT22;2462;51.456;7.248;2023-05-07T03:19:05;20.00;96.00
2935;DHT22;2462;51.456;7.248;2023-05-07T03:21:31;20.00;96.10
2935;DHT22;2462;51.456;7.248;2023-05-07T03:23:59;20.00;96.10
2935;DHT22;2462;51.456;7.248;2023-05-07T03:26:24;20.00;96.20
2935;DHT22;2462;51.456;7.248;2023-05-07T03:28:50;20.00;96.10
2935;DHT22;2462;51.456;7.248;2023-05-07T03:31:16;20.00;96.20
2935;DHT22;2462;51.456;7.248;2023-05-07T03:33:52;20.00;96.20
2935;DHT22;2462;51.456;7.248;2023-05-07T03:36:18;19.90;96.20
2935;DHT22;2462;51.456;7.248;2023-05-07T03:38:44;20.00;96.20
2935;DHT22;2462;51.456;7.248;2023-05-07T03:41:09;19.90;96.20
2935;DHT22;2462;51.456;7.248;2023-05-07T03:43:35;19.90;96.20
2935;DHT22;2462;51.456;7.248;2023-05-07T03:46:00;19.90;96.30
2935;DHT22;2462;51.456;7.248;2023-05-07T03:48:26;19.90;96.30
2935;DHT22;2462;51.456;7.248;2023-05-07T03:50:51;19.90;96.40
2935;DHT22;2462;51.456;7.248;2023-05-07T03:53:17;19.90;96.30
2935;DHT22;2462;51.456;7.248;2023-05-07T03:55:42;19.90;96.30
2935;DHT22;2462;51.456;7.248;2023-05-07T03:58:08;19.90;96.40
2935;DHT22;2462;51.456;7.248;2023-05-07T04:00:33;19.90;96.40
2935;DHT22;2462;51.456;7.248;2023-05-07T04:03:03;19.90;96.40
2935;DHT22;2462;51.456;7.248;2023-05-07T04:05:30;19.90;96.40
2935;DHT22;2462;51.456;7.248;2023-05-07T04:07:57;19.90;96.50
2935;DHT22;2462;51.456;7.248;2023-05-07T04:10:22;19.90;96.40
2935;DHT22;2462;51.456;7.248;2023-05-07T04:12:48;19.90;96.40
2935;DHT22;2462;51.456;7.248;2023-05-07T04:15:13;19.90;96.40
2935;DHT22;2462;51.456;7.248;2023-05-07T04:17:39;19.80;96.40
2935;DHT22;2462;51.456;7.248;2023-05-07T04:20:08;19.80;96.40
2935;DHT22;2462;51.456;7.248;2023-05-07T04:22:34;19.90;96.40
2935;DHT22;2462;51.456;7.248;2023-05-07T04:25:00;19.90;96.40
2935;DHT22;2462;51.456;7.248;2023-05-07T04:27:25;19.90;96.40
2935;DHT22;2462;51.456;7.248;2023-05-07T04:29:51;19.90;96.50
2935;DHT22;2462;51.456;7.248;2023-05-07T04:32:21;19.90;96.40
2935;DHT22;2462;51.456;7.248;2023-05-07T04:34:46;19.90;96.40
2935;DHT22;2462;51.456;7.248;2023-05-07T04:37:12;19.90;96.40
2935;DHT22;2462;51.456;7.248;2023-05-07T04:39:37;19.90;96.40
2935;DHT22;2462;51.456;7.248;2023-05-07T04:42:03;19.90;96.50
2935;DHT22;2462;51.456;7.248;2023-05-07T04:44:28;19.90;96.40
2935;DHT22;2462;51.456;7.248;2023-05-07T04:46:56;19.90;96.50
2935;DHT22;2462;51.456;7.248;2023-05-07T04:49:22;19.90;96.50
2935;DHT22;2462;51.456;7.248;2023-05-07T04:51:47;20.00;96.70
2935;DHT22;2462;51.456;7.248;2023-05-07T04:54:13;20.00;96.50
2935;DHT22;2462;51.456;7.248;2023-05-07T04:56:38;20.00;96.50
2935;DHT22;2462;51.456;7.248;2023-05-07T04:59:04;20.00;96.50
2935;DHT22;2462;51.456;7.248;2023-05-07T05:01:29;20.00;96.50
2935;DHT22;2462;51.456;7.248;2023-05-07T05:03:55;20.10;96.60
2935;DHT22;2462;51.456;7.248;2023-05-07T05:06:20;20.10;96.50
2935;DHT22;2462;51.456;7.248;2023-05-07T05:08:46;20.10;96.50
2935;DHT22;2462;51.456;7.248;2023-05-07T05:11:11;20.20;96.60
2935;DHT22;2462;51.456;7.248;2023-05-07T05:13:37;20.30;96.50
2935;DHT22;2462;51.456;7.248;2023-05-07T05:16:03;20.30;96.50
2935;DHT22;2462;51.456;7.248;2023-05-07T05:18:28;20.40;96.50
2935;DHT22;2462;51.456;7.248;2023-05-07T05:20:54;20.40;96.50
2935;DHT22;2462;51.456;7.248;2023-05-07T05:23:19;20.40;96.50
2935;DHT22;2462;51.456;7.248;2023-05-07T05:25:45;20.50;96.50
2935;DHT22;2462;51.456;7.248;2023-05-07T05:28:11;20.50;96.50
2935;DHT22;2462;51.456;7.248;2023-05-07T05:30:36;20.60;96.50
2935;DHT22;2462;51.456;7.248;2023-05-07T05:33:02;20.60;96.50
2935;DHT22;2462;51.456;7.248;2023-05-07T05:35:27;20.70;96.50
2935;DHT22;2462;51.456;7.248;2023-05-07T05:37:53;20.70;96.50
2935;DHT22;2462;51.456;7.248;2023-05-07T05:40:18;20.80;96.50
2935;DHT22;2462;51.456;7.248;2023-05-07T05:42:44;20.80;96.40
2935;DHT22;2462;51.456;7.248;2023-05-07T05:45:10;20.90;96.40
2935;DHT22;2462;51.456;7.248;2023-05-07T05:47:35;21.00;96.40
2935;DHT22;2462;51.456;7.248;2023-05-07T05:50:01;21.10;96.40
2935;DHT22;2462;51.456;7.248;2023-05-07T05:52:26;21.10;96.30
2935;DHT22;2462;51.456;7.248;2023-05-07T05:54:53;21.10;96.20
2935;DHT22;2462;51.456;7.248;2023-05-07T05:57:18;21.20;96.30
2935;DHT22;2462;51.456;7.248;2023-05-07T05:59:44;21.30;96.20
2935;DHT22;2462;51.456;7.248;2023-05-07T06:02:10;21.30;96.30
2935;DHT22;2462;51.456;7.248;2023-05-07T06:04:35;21.40;96.10
2935;DHT22;2462;51.456;7.248;2023-05-07T06:07:01;21.40;96.00
2935;DHT22;2462;51.456;7.248;2023-05-07T06:09:26;21.50;96.40
2935;DHT22;2462;51.456;7.248;2023-05-07T06:11:52;21.50;96.00
2935;DHT22;2462;51.456;7.248;2023-05-07T06:14:17;21.60;96.00
2935;DHT22;2462;51.456;7.248;2023-05-07T06:16:43;21.70;96.00
2935;DHT22;2462;51.456;7.248;2023-05-07T06:19:09;21.80;96.00
2935;DHT22;2462;51.456;7.248;2023-05-07T06:21:35;21.80;96.20
2935;DHT22;2462;51.456;7.248;2023-05-07T06:24:00;21.90;96.10
2935;DHT22;2462;51.456;7.248;2023-05-07T06:26:26;22.00;96.00
2935;DHT22;2462;51.456;7.248;2023-05-07T06:28:51;22.00;95.70
2935;DHT22;2462;51.456;7.248;2023-05-07T06:31:20;22.10;95.60
2935;DHT22;2462;51.456;7.248;2023-05-07T06:33:46;22.10;95.50
2935;DHT22;2462;51.456;7.248;2023-05-07T06:36:12;22.20;95.50
2935;DHT22;2462;51.456;7.248;2023-05-07T06:38:37;22.20;95.40
2935;DHT22;2462;51.456;7.248;2023-05-07T06:41:05;22.20;95.50
2935;DHT22;2462;51.456;7.248;2023-05-07T06:43:31;22.30;95.50
2935;DHT22;2462;51.456;7.248;2023-05-07T06:45:56;22.30;95.60
2935;DHT22;2462;51.456;7.248;2023-05-07T06:48:22;22.30;95.60
2935;DHT22;2462;51.456;7.248;2023-05-07T06:50:47;22.30;95.60
2935;DHT22;2462;51.456;7.248;2023-05-07T06:53:12;22.40;95.70
2935;DHT22;2462;51.456;7.248;2023-05-07T06:55:38;22.40;95.60
2935;DHT22;2462;51.456;7.248;2023-05-07T06:58:04;22.50;95.80
2935;DHT22;2462;51.456;7.248;2023-05-07T07:00:29;22.50;95.80
2935;DHT22;2462;51.456;7.248;2023-05-07T07:02:55;22.50;95.70
2935;DHT22;2462;51.456;7.248;2023-05-07T07:05:20;22.50;95.80
2935;DHT22;2462;51.456;7.248;2023-05-07T07:07:46;22.60;95.90
2935;DHT22;2462;51.456;7.248;2023-05-07T07:10:21;22.60;95.90
2935;DHT22;2462;51.456;7.248;2023-05-07T07:12:47;22.70;96.00
2935;DHT22;2462;51.456;7.248;2023-05-07T07:15:16;22.70;95.80
2935;DHT22;2462;51.456;7.248;2023-05-07T07:17:41;22.80;95.90
2935;DHT22;2462;51.456;7.248;2023-05-07T07:20:07;22.80;95.80
2935;DHT22;2462;51.456;7.248;2023-05-07T07:22:33;22.90;95.90
2935;DHT22;2462;51.456;7.248;2023-05-07T07:24:58;23.00;95.80
2935;DHT22;2462;51.456;7.248;2023-05-07T07:27:24;23.10;95.80
2935;DHT22;2462;51.456;7.248;2023-05-07T07:29:50;23.10;95.80
2935;DHT22;2462;51.456;7.248;2023-05-07T07:32:16;23.10;95.80
2935;DHT22;2462;51.456;7.248;2023-05-07T07:34:41;23.10;95.80
2935;DHT22;2462;51.456;7.248;2023-05-07T07:37:07;23.20;95.80
2935;DHT22;2462;51.456;7.248;2023-05-07T07:39:33;23.20;95.70
2935;DHT22;2462;51.456;7.248;2023-05-07T07:41:59;23.20;95.70
2935;DHT22;2462;51.456;7.248;2023-05-07T07:44:25;23.30;95.90
2935;DHT22;2462;51.456;7.248;2023-05-07T07:46:51;23.30;95.90
2935;DHT22;2462;51.456;7.248;2023-05-07T07:49:16;23.40;95.90
2935;DHT22;2462;51.456;7.248;2023-05-07T07:51:42;23.40;95.80
2935;DHT22;2462;51.456;7.248;2023-05-07T07:54:08;23.50;95.80
2935;DHT22;2462;51.456;7.248;2023-05-07T07:56:34;23.60;93.60
2935;DHT22;2462;51.456;7.248;2023-05-07T07:58:59;23.70;92.40
2935;DHT22;2462;51.456;7.248;2023-05-07T08:01:25;23.80;92.30
2935;DHT22;2462;51.456;7.248;2023-05-07T08:03:51;23.80;92.60
2935;DHT22;2462;51.456;7.248;2023-05-07T08:06:16;23.80;92.50
2935;DHT22;2462;51.456;7.248;2023-05-07T08:08:42;23.80;92.50
2935;DHT22;2462;51.456;7.248;2023-05-07T08:11:08;23.80;92.50
2935;DHT22;2462;51.456;7.248;2023-05-07T08:13:34;23.80;92.70
2935;DHT22;2462;51.456;7.248;2023-05-07T08:16:00;23.80;92.60
2935;DHT22;2462;51.456;7.248;2023-05-07T08:18:25;23.80;92.40
2935;DHT22;2462;51.456;7.248;2023-05-07T08:20:51;23.80;92.40
2935;DHT22;2462;51.456;7.248;2023-05-07T08:23:17;23.90;92.40
2935;DHT22;2462;51.456;7.248;2023-05-07T08:25:42;23.90;92.70
2935;DHT22;2462;51.456;7.248;2023-05-07T08:28:08;24.00;93.10
2935;DHT22;2462;51.456;7.248;2023-05-07T08:30:34;24.10;93.20
2935;DHT22;2462;51.456;7.248;2023-05-07T08:33:00;24.20;93.30
2935;DHT22;2462;51.456;7.248;2023-05-07T08:35:26;24.20;93.30
2935;DHT22;2462;51.456;7.248;2023-05-07T08:37:52;24.30;93.30
2935;DHT22;2462;51.456;7.248;2023-05-07T08:40:18;24.40;93.30
2935;DHT22;2462;51.456;7.248;2023-05-07T08:42:44;24.50;93.40
2935;DHT22;2462;51.456;7.248;2023-05-07T08:45:10;24.60;93.40
2935;DHT22;2462;51.456;7.248;2023-05-07T08:47:43;24.80;93.40
2935;DHT22;2462;51.456;7.248;2023-05-07T08:50:12;24.90;93.40
2935;DHT22;2462;51.456;7.248;2023-05-07T08:52:39;25.10;93.40
2935;DHT22;2462;51.456;7.248;2023-05-07T08:55:06;25.20;93.30
2935;DHT22;2462;51.456;7.248;2023-05-07T08:57:32;25.40;93.30
2935;DHT22;2462;51.456;7.248;2023-05-07T08:59:57;25.50;93.40
2935;DHT22;2462;51.456;7.248;2023-05-07T09:02:23;25.60;93.30
2935;DHT22;2462;51.456;7.248;2023-05-07T09:04:49;25.80;93.00
2935;DHT22;2462;51.456;7.248;2023-05-07T09:07:14;25.80;93.10
2935;DHT22;2462;51.456;7.248;2023-05-07T09:09:40;26.00;93.10
2935;DHT22;2462;51.456;7.248;2023-05-07T09:12:06;26.10;93.20
2935;DHT22;2462;51.456;7.248;2023-05-07T09:14:31;26.20;93.30
2935;DHT22;2462;51.456;7.248;2023-05-07T09:16:57;26.20;93.20
2935;DHT22;2462;51.456;7.248;2023-05-07T09:19:23;26.30;93.30
2935;DHT22;2462;51.456;7.248;2023-05-07T09:21:49;26.40;93.30
2935;DHT22;2462;51.456;7.248;2023-05-07T09:24:15;26.60;93.30
2935;DHT22;2462;51.456;7.248;2023-05-07T09:26:41;26.70;93.30
2935;DHT22;2462;51.456;7.248;2023-05-07T09:29:07;26.90;93.40
2935;DHT22;2462;51.456;7.248;2023-05-07T09:31:38;27.00;93.40
2935;DHT22;2462;51.456;7.248;2023-05-07T09:36:32;27.40;93.10
2935;DHT22;2462;51.456;7.248;2023-05-07T09:39:00;27.60;93.30
2935;DHT22;2462;51.456;7.248;2023-05-07T09:41:26;27.80;93.40
2935;DHT22;2462;51.456;7.248;2023-05-07T09:43:55;27.90;93.30
2935;DHT22;2462;51.456;7.248;2023-05-07T09:46:25;28.00;93.30
2935;DHT22;2462;51.456;7.248;2023-05-07T09:48:53;28.00;90.10
2935;DHT22;2462;51.456;7.248;2023-05-07T09:51:41;27.90;88.80
2935;DHT22;2462;51.456;7.248;2023-05-07T09:54:09;27.60;84.30
2935;DHT22;2462;51.456;7.248;2023-05-07T09:56:35;27.50;85.50
2935;DHT22;2462;51.456;7.248;2023-05-07T09:59:03;27.50;86.10
2935;DHT22;2462;51.456;7.248;2023-05-07T10:01:30;27.50;85.80
2935;DHT22;2462;51.456;7.248;2023-05-07T10:03:57;27.50;85.90
2935;DHT22;2462;51.456;7.248;2023-05-07T10:06:24;27.50;85.60
2935;DHT22;2462;51.456;7.248;2023-05-07T10:08:52;27.50;85.70
2935;DHT22;2462;51.456;7.248;2023-05-07T10:11:18;27.50;85.60
2935;DHT22;2462;51.456;7.248;2023-05-07T10:13:46;27.50;85.60
2935;DHT22;2462;51.456;7.248;2023-05-07T10:16:13;27.60;85.70
2935;DHT22;2462;51.456;7.248;2023-05-07T10:18:40;27.60;85.70
2935;DHT22;2462;51.456;7.248;2023-05-07T10:21:24;27.70;85.50
2935;DHT22;2462;51.456;7.248;2023-05-07T10:24:00;27.80;85.10
2935;DHT22;2462;51.456;7.248;2023-05-07T10:26:31;27.90;84.70
2935;DHT22;2462;51.456;7.248;2023-05-07T10:29:11;28.00;84.50
2935;DHT22;2462;51.456;7.248;2023-05-07T10:31:42;28.00;84.50
2935;DHT22;2462;51.456;7.248;2023-05-07T10:34:14;27.90;84.30
2935;DHT22;2462;51.456;7.248;2023-05-07T10:36:42;27.90;84.40
2935;DHT22;2462;51.456;7.248;2023-05-07T10:39:08;27.70;83.20
2935;DHT22;2462;51.456;7.248;2023-05-07T10:41:33;27.40;81.00
2935;DHT22;2462;51.456;7.248;2023-05-07T10:44:00;27.40;82.30
2935;DHT22;2462;51.456;7.248;2023-05-07T10:46:27;27.30;82.70
2935;DHT22;2462;51.456;7.248;2023-05-07T10:51:32;27.30;81.30
2935;DHT22;2462;51.456;7.248;2023-05-07T10:54:18;27.30;81.50
2935;DHT22;2462;51.456;7.248;2023-05-07T10:56:44;27.30;82.20
2935;DHT22;2462;51.456;7.248;2023-05-07T11:01:57;27.40;80.50
2935;DHT22;2462;51.456;7.248;2023-05-07T11:04:27;27.30;78.90
2935;DHT22;2462;51.456;7.248;2023-05-07T11:07:21;27.10;80.20
2935;DHT22;2462;51.456;7.248;2023-05-07T11:15:05;27.10;80.20
2935;DHT22;2462;51.456;7.248;2023-05-07T11:17:32;27.10;80.40
2935;DHT22;2462;51.456;7.248;2023-05-07T11:20:03;27.00;80.50
2935;DHT22;2462;51.456;7.248;2023-05-07T11:25:02;27.00;82.00
2935;DHT22;2462;51.456;7.248;2023-05-07T11:27:29;26.90;82.40
2935;DHT22;2462;51.456;7.248;2023-05-07T11:29:54;26.80;81.80
2935;DHT22;2462;51.456;7.248;2023-05-07T11:32:28;26.90;81.90
2935;DHT22;2462;51.456;7.248;2023-05-07T11:34:55;26.90;80.80
2935;DHT22;2462;51.456;7.248;2023-05-07T11:37:22;26.90;81.60
2935;DHT22;2462;51.456;7.248;2023-05-07T11:39:48;26.90;81.30
2935;DHT22;2462;51.456;7.248;2023-05-07T11:42:35;26.90;80.60
2935;DHT22;2462;51.456;7.248;2023-05-07T11:45:01;26.90;80.80
2935;DHT22;2462;51.456;7.248;2023-05-07T11:47:30;26.90;81.50
2935;DHT22;2462;51.456;7.248;2023-05-07T11:49:56;26.90;82.10
2935;DHT22;2462;51.456;7.248;2023-05-07T11:52:23;26.80;83.00
2935;DHT22;2462;51.456;7.248;2023-05-07T11:54:54;26.80;83.30
2935;DHT22;2462;51.456;7.248;2023-05-07T11:57:24;26.70;83.40
2935;DHT22;2462;51.456;7.248;2023-05-07T11:59:57;26.70;82.90
2935;DHT22;2462;51.456;7.248;2023-05-07T12:02:23;26.70;82.50
2935;DHT22;2462;51.456;7.248;2023-05-07T12:04:52;26.80;82.00
2935;DHT22;2462;51.456;7.248;2023-05-07T12:07:18;26.80;82.00
2935;DHT22;2462;51.456;7.248;2023-05-07T12:09:45;26.80;82.60
2935;DHT22;2462;51.456;7.248;2023-05-07T12:12:11;26.90;82.80
2935;DHT22;2462;51.456;7.248;2023-05-07T12:14:40;27.00;82.90
2935;DHT22;2462;51.456;7.248;2023-05-07T12:17:11;26.90;81.90
2935;DHT22;2462;51.456;7.248;2023-05-07T12:19:38;26.90;82.50
2935;DHT22;2462;51.456;7.248;2023-05-07T12:22:04;27.00;82.70
2935;DHT22;2462;51.456;7.248;2023-05-07T12:24:48;27.00;81.60
2935;DHT22;2462;51.456;7.248;2023-05-07T12:27:14;27.00;80.70
2935;DHT22;2462;51.456;7.248;2023-05-07T12:29:47;26.90;80.70
2935;DHT22;2462;51.456;7.248;2023-05-07T12:32:16;26.80;81.40
2935;DHT22;2462;51.456;7.248;2023-05-07T12:34:42;26.70;81.30
2935;DHT22;2462;51.456;7.248;2023-05-07T12:37:08;26.70;81.80
2935;DHT22;2462;51.456;7.248;2023-05-07T12:39:33;26.70;81.10
2935;DHT22;2462;51.456;7.248;2023-05-07T12:41:59;26.60;81.10
2935;DHT22;2462;51.456;7.248;2023-05-07T12:44:26;26.60;81.90
2935;DHT22;2462;51.456;7.248;2023-05-07T12:46:54;26.50;81.90
2935;DHT22;2462;51.456;7.248;2023-05-07T12:49:19;26.40;81.40
2935;DHT22;2462;51.456;7.248;2023-05-07T12:51:47;26.40;81.50
2935;DHT22;2462;51.456;7.248;2023-05-07T12:54:13;26.20;82.50
2935;DHT22;2462;51.456;7.248;2023-05-07T12:56:40;26.10;82.40
2935;DHT22;2462;51.456;7.248;2023-05-07T12:59:05;26.00;82.80
2935;DHT22;2462;51.456;7.248;2023-05-07T13:01:31;25.90;83.00
2935;DHT22;2462;51.456;7.248;2023-05-07T13:04:03;25.80;82.70
2935;DHT22;2462;51.456;7.248;2023-05-07T13:06:32;25.80;82.20
2935;DHT22;2462;51.456;7.248;2023-05-07T13:08:57;25.70;83.10
2935;DHT22;2462;51.456;7.248;2023-05-07T13:11:23;25.60;83.10
2935;DHT22;2462;51.456;7.248;2023-05-07T13:13:48;25.60;83.30
2935;DHT22;2462;51.456;7.248;2023-05-07T13:16:14;25.50;83.50
2935;DHT22;2462;51.456;7.248;2023-05-07T13:18:40;25.50;83.80
2935;DHT22;2462;51.456;7.248;2023-05-07T13:21:06;25.50;84.00
2935;DHT22;2462;51.456;7.248;2023-05-07T13:23:32;25.50;84.10
2935;DHT22;2462;51.456;7.248;2023-05-07T13:25:57;25.40;84.20
2935;DHT22;2462;51.456;7.248;2023-05-07T13:28:24;25.30;84.10
2935;DHT22;2462;51.456;7.248;2023-05-07T13:30:50;25.30;84.90
2935;DHT22;2462;51.456;7.248;2023-05-07T13:33:17;25.30;85.00
2935;DHT22;2462;51.456;7.248;2023-05-07T13:35:42;25.20;84.70
2935;DHT22;2462;51.456;7.248;2023-05-07T13:38:08;25.10;84.40
2935;DHT22;2462;51.456;7.248;2023-05-07T13:40:34;25.20;85.10
2935;DHT22;2462;51.456;7.248;2023-05-07T13:43:00;25.10;84.10
2935;DHT22;2462;51.456;7.248;2023-05-07T13:45:29;25.10;83.90
2935;DHT22;2462;51.456;7.248;2023-05-07T13:47:55;25.00;84.20
2935;DHT22;2462;51.456;7.248;2023-05-07T13:50:21;24.90;86.10
2935;DHT22;2462;51.456;7.248;2023-05-07T13:52:47;24.90;85.80
2935;DHT22;2462;51.456;7.248;2023-05-07T13:55:17;24.80;84.60
2935;DHT22;2462;51.456;7.248;2023-05-07T13:57:43;24.80;84.10
2935;DHT22;2462;51.456;7.248;2023-05-07T14:00:09;24.80;85.90
2935;DHT22;2462;51.456;7.248;2023-05-07T14:02:34;24.70;86.90
2935;DHT22;2462;51.456;7.248;2023-05-07T14:05:00;24.70;86.00
2935;DHT22;2462;51.456;7.248;2023-05-07T14:07:25;24.40;85.60
2935;DHT22;2462;51.456;7.248;2023-05-07T14:09:51;24.10;85.30
2935;DHT22;2462;51.456;7.248;2023-05-07T14:12:17;24.00;86.80
2935;DHT22;2462;51.456;7.248;2023-05-07T14:14:42;23.80;87.40
2935;DHT22;2462;51.456;7.248;2023-05-07T14:17:08;23.60;88.80
2935;DHT22;2462;51.456;7.248;2023-05-07T14:19:33;23.70;89.50
2935;DHT22;2462;51.456;7.248;2023-05-07T14:21:59;23.90;89.90
2935;DHT22;2462;51.456;7.248;2023-05-07T14:24:25;24.10;89.70
2935;DHT22;2462;51.456;7.248;2023-05-07T14:26:50;24.40;89.80
2935;DHT22;2462;51.456;7.248;2023-05-07T14:29:16;24.50;89.50
2935;DHT22;2462;51.456;7.248;2023-05-07T14:31:44;24.60;89.40
2935;DHT22;2462;51.456;7.248;2023-05-07T14:34:10;24.80;89.10
2935;DHT22;2462;51.456;7.248;2023-05-07T14:36:35;24.80;89.00
2935;DHT22;2462;51.456;7.248;2023-05-07T14:39:01;24.90;89.40
2935;DHT22;2462;51.456;7.248;2023-05-07T14:41:27;24.90;89.30
2935;DHT22;2462;51.456;7.248;2023-05-07T14:43:53;24.90;89.20
2935;DHT22;2462;51.456;7.248;2023-05-07T14:46:18;25.00;89.50
2935;DHT22;2462;51.456;7.248;2023-05-07T14:48:45;25.00;90.00
2935;DHT22;2462;51.456;7.248;2023-05-07T14:51:11;25.00;90.40
2935;DHT22;2462;51.456;7.248;2023-05-07T14:53:37;25.10;90.90
2935;DHT22;2462;51.456;7.248;2023-05-07T14:56:03;25.10;90.50
2935;DHT22;2462;51.456;7.248;2023-05-07T14:58:29;25.20;90.50
2935;DHT22;2462;51.456;7.248;2023-05-07T15:00:54;25.30;90.50
2935;DHT22;2462;51.456;7.248;2023-05-07T15:03:20;25.30;90.40
2935;DHT22;2462;51.456;7.248;2023-05-07T15:05:46;25.40;90.50
2935;DHT22;2462;51.456;7.248;2023-05-07T15:08:12;25.40;90.40
2935;DHT22;2462;51.456;7.248;2023-05-07T15:10:38;25.40;90.60
2935;DHT22;2462;51.456;7.248;2023-05-07T15:13:07;25.40;90.60
2935;DHT22;2462;51.456;7.248;2023-05-07T15:15:33;25.40;90.70
2935;DHT22;2462;51.456;7.248;2023-05-07T15:17:58;25.40;90.70
2935;DHT22;2462;51.456;7.248;2023-05-07T15:20:25;25.40;90.80
2935;DHT22;2462;51.456;7.248;2023-05-07T15:22:51;25.40;90.80
2935;DHT22;2462;51.456;7.248;2023-05-07T15:25:16;25.40;90.90
2935;DHT22;2462;51.456;7.248;2023-05-07T15:27:42;25.40;91.00
2935;DHT22;2462;51.456;7.248;2023-05-07T15:30:08;25.40;91.00
2935;DHT22;2462;51.456;7.248;2023-05-07T15:32:35;25.40;91.20
2935;DHT22;2462;51.456;7.248;2023-05-07T15:35:01;25.40;91.20
2935;DHT22;2462;51.456;7.248;2023-05-07T15:37:27;25.40;91.20
2935;DHT22;2462;51.456;7.248;2023-05-07T15:39:52;25.40;91.30
2935;DHT22;2462;51.456;7.248;2023-05-07T15:42:18;25.40;91.40
2935;DHT22;2462;51.456;7.248;2023-05-07T15:44:43;25.40;91.60
2935;DHT22;2462;51.456;7.248;2023-05-07T15:47:09;25.40;91.60
2935;DHT22;2462;51.456;7.248;2023-05-07T15:49:34;25.50;91.70
2935;DHT22;2462;51.456;7.248;2023-05-07T15:52:00;25.50;91.70
2935;DHT22;2462;51.456;7.248;2023-05-07T15:54:26;25.50;91.80
2935;DHT22;2462;51.456;7.248;2023-05-07T15:56:52;25.40;91.70
2935;DHT22;2462;51.456;7.248;2023-05-07T15:59:17;25.50;91.80
2935;DHT22;2462;51.456;7.248;2023-05-07T16:01:43;25.50;91.80
2935;DHT22;2462;51.456;7.248;2023-05-07T16:04:09;25.50;91.80
2935;DHT22;2462;51.456;7.248;2023-05-07T16:06:35;25.50;91.70
2935;DHT22;2462;51.456;7.248;2023-05-07T16:09:00;25.50;91.90
2935;DHT22;2462;51.456;7.248;2023-05-07T16:11:26;25.60;92.00
2935;DHT22;2462;51.456;7.248;2023-05-07T16:13:54;25.60;92.10